createdAt,value
2022-09-28T00:00:27.115Z,50.74
2022-09-28T00:05:32.742Z,50.84
2022-09-28T00:10:35.352Z,50.99
2022-09-28T00:15:37.973Z,50.90
2022-09-28T00:20:41.992Z,50.99
2022-09-28T00:25:44.566Z,51.28
2022-09-28T00:30:47.143Z,51.42
2022-09-28T00:35:57.284Z,51.48
2022-09-28T00:41:00.239Z,51.66
2022-09-28T00:46:03.938Z,51.78
2022-09-28T00:51:09.484Z,51.96
2022-09-28T00:56:13.014Z,52.04
2022-09-28T01:01:15.651Z,52.06
2022-09-28T01:06:21.025Z,52.26
2022-09-28T01:11:23.623Z,52.19
2022-09-28T01:16:29.604Z,52.07
2022-09-28T01:21:39.306Z,52.24
2022-09-28T01:26:49.454Z,52.24
2022-09-28T01:31:53.956Z,52.37
2022-09-28T01:36:57.188Z,52.22
2022-09-28T01:42:06.443Z,52.36
2022-09-28T01:47:09.403Z,52.52
2022-09-28T01:52:14.948Z,52.28
2022-09-28T01:57:19.994Z,52.55
2022-09-28T02:02:25.314Z,52.53
2022-09-28T02:07:31.219Z,52.49
2022-09-28T02:12:36.334Z,52.68
2022-09-28T02:17:39.603Z,52.72
2022-09-28T02:22:44.314Z,52.70
2022-09-28T02:27:51.850Z,52.70
2022-09-28T02:32:55.644Z,52.92
2022-09-28T02:37:59.344Z,53.14
2022-09-28T02:43:09.577Z,53.10
2022-09-28T02:48:41.553Z,52.92
2022-09-28T02:54:15.449Z,52.96
2022-09-28T02:59:29.296Z,53.21
2022-09-28T03:04:47.064Z,53.24
2022-09-28T03:10:00.148Z,53.28
2022-09-28T03:15:12.332Z,53.59
2022-09-28T03:20:16.350Z,53.64
2022-09-28T03:25:19.555Z,53.62
2022-09-28T03:30:23.652Z,53.30
2022-09-28T03:35:26.600Z,53.51
2022-09-28T03:40:29.706Z,53.68
2022-09-28T03:45:33.808Z,53.67
2022-09-28T03:50:36.504Z,53.57
2022-09-28T03:55:39.298Z,53.81
2022-09-28T04:00:43.455Z,53.90
2022-09-28T04:05:49.889Z,54.01
2022-09-28T04:10:52.484Z,53.75
2022-09-28T04:15:57.501Z,53.72
2022-09-28T04:21:06.453Z,53.81
2022-09-28T04:26:16.482Z,53.90
2022-09-28T04:31:21.731Z,53.83
2022-09-28T04:36:25.009Z,53.98
2022-09-28T04:41:27.744Z,54.18
2022-09-28T04:46:31.791Z,53.87
2022-09-28T04:51:52.913Z,54.14
2022-09-28T04:56:55.633Z,53.98
2022-09-28T05:01:59.717Z,54.17
2022-09-28T05:07:25.491Z,54.20
2022-09-28T05:12:28.139Z,54.38
2022-09-28T05:17:32.559Z,54.40
2022-09-28T05:22:53.902Z,54.50
2022-09-28T05:27:57.657Z,54.42
2022-09-28T05:33:14.049Z,54.37
2022-09-28T05:38:19.820Z,54.54
2022-09-28T05:43:22.609Z,54.58
2022-09-28T05:48:27.603Z,54.81
2022-09-28T05:53:30.352Z,54.81
2022-09-28T05:58:34.388Z,54.65
2022-09-28T06:03:38.472Z,54.93
2022-09-28T06:08:42.889Z,54.75
2022-09-28T06:14:09.207Z,54.68
2022-09-28T06:19:13.569Z,54.90
2022-09-28T06:24:40.425Z,54.78
2022-09-28T06:29:43.392Z,54.76
2022-09-28T06:34:47.446Z,54.84
2022-09-28T06:39:50.105Z,54.95
2022-09-28T06:44:53.183Z,55.25
2022-09-28T06:50:03.564Z,54.98
2022-09-28T06:55:26.165Z,55.02
2022-09-28T07:00:33.959Z,54.54
2022-09-28T07:05:41.429Z,54.23
2022-09-28T07:11:13.534Z,53.76
2022-09-28T07:17:06.185Z,53.63
2022-09-28T07:22:05.243Z,53.30
2022-09-28T07:27:09.519Z,52.99
2022-09-28T07:37:59.461Z,53.00
2022-09-28T07:43:05.990Z,53.13
2022-09-28T07:48:08.686Z,52.98
2022-09-28T07:53:33.306Z,52.75
2022-09-28T07:59:04.811Z,52.73
2022-09-28T08:04:16.180Z,52.61
2022-09-28T08:09:22.601Z,52.80
2022-09-28T08:15:01.011Z,52.60
2022-09-28T08:20:41.389Z,52.41
2022-09-28T08:25:48.957Z,52.12
2022-09-28T08:30:52.088Z,51.65
2022-09-28T08:36:20.678Z,46.07
2022-09-28T08:41:46.273Z,45.30
2022-09-28T08:47:06.463Z,47.64
2022-09-28T08:52:30.164Z,47.94
2022-09-28T08:58:04.788Z,48.22
2022-09-28T09:03:12.612Z,48.01
2022-09-28T09:08:23.321Z,48.63
2022-09-28T09:13:46.330Z,48.73
2022-09-28T09:18:55.201Z,49.56
2022-09-28T09:24:12.893Z,49.31
2022-09-28T09:29:28.140Z,49.22
2022-09-28T09:34:52.667Z,49.29
2022-09-28T09:40:30.571Z,49.40
2022-09-28T09:46:02.532Z,50.02
2022-09-28T09:51:32.742Z,50.25
2022-09-28T09:56:38.438Z,50.28
2022-09-28T10:01:51.765Z,50.04
2022-09-28T10:07:04.702Z,50.46
2022-09-28T10:12:09.862Z,51.18
2022-09-28T10:17:14.857Z,51.05
2022-09-28T10:22:46.240Z,50.69
2022-09-28T10:27:52.846Z,50.81
2022-09-28T10:32:59.375Z,51.22
2022-09-28T10:38:07.841Z,50.74
2022-09-28T10:43:23.694Z,50.26
2022-09-28T10:48:36.537Z,50.28
2022-09-28T10:53:39.560Z,50.23
2022-09-28T10:58:53.582Z,50.29
2022-09-28T11:04:05.048Z,49.92
2022-09-28T11:09:29.771Z,49.78
2022-09-28T11:14:41.322Z,49.75
2022-09-28T11:19:52.214Z,50.08
2022-09-28T11:24:54.886Z,50.09
2022-09-28T11:29:58.485Z,49.96
2022-09-28T11:35:16.953Z,50.04
2022-09-28T11:40:27.324Z,50.29
2022-09-28T11:45:36.511Z,50.34
2022-09-28T11:50:47.522Z,50.55
2022-09-28T11:55:52.990Z,50.82
2022-09-28T12:00:58.719Z,50.85
2022-09-28T12:06:14.171Z,50.83
2022-09-28T12:11:19.205Z,51.21
2022-09-28T12:22:12.448Z,51.39
2022-09-28T12:27:16.709Z,51.19
2022-09-28T12:32:25.358Z,51.23
2022-09-28T12:37:35.962Z,51.36
2022-09-28T12:42:58.622Z,51.78
2022-09-28T12:48:09.583Z,51.71
2022-09-28T12:53:29.304Z,51.59
2022-09-28T12:58:39.999Z,51.94
2022-09-28T13:04:10.333Z,51.83
2022-09-28T13:09:21.513Z,51.72
2022-09-28T13:14:34.855Z,51.81
2022-09-28T13:19:39.440Z,52.62
2022-09-28T13:24:44.216Z,52.35
2022-09-28T13:29:49.102Z,51.80
2022-09-28T13:34:52.414Z,50.03
2022-09-28T13:39:56.937Z,49.09
2022-09-28T13:45:09.433Z,49.09
2022-09-28T13:50:19.392Z,49.64
2022-09-28T13:55:32.162Z,49.75
2022-09-28T14:00:38.038Z,48.02
2022-09-28T14:05:54.239Z,46.73
2022-09-28T14:10:58.289Z,47.69
2022-09-28T14:16:20.537Z,48.00
2022-09-28T14:21:53.814Z,48.13
2022-09-28T14:27:28.752Z,48.41
2022-09-28T14:32:37.336Z,48.63
2022-09-28T14:37:57.808Z,49.19
2022-09-28T14:43:23.956Z,48.88
2022-09-28T14:48:47.847Z,48.83
2022-09-28T14:53:51.043Z,47.29
2022-09-28T14:58:55.379Z,47.49
2022-09-28T15:04:00.985Z,46.41
2022-09-28T15:09:03.702Z,47.55
2022-09-28T15:14:07.240Z,47.32
2022-09-28T15:19:22.815Z,47.67
2022-09-28T15:24:27.275Z,48.26
2022-09-28T15:29:33.595Z,48.80
2022-09-28T15:34:54.502Z,49.70
2022-09-28T15:39:57.348Z,50.31
2022-09-28T15:45:06.217Z,50.49
2022-09-28T15:50:21.228Z,41.31
2022-09-28T15:55:25.691Z,46.66
2022-09-28T16:00:29.681Z,45.81
2022-09-28T16:05:37.757Z,46.28
2022-09-28T16:10:41.344Z,46.50
2022-09-28T16:15:44.127Z,47.61
2022-09-28T16:20:49.879Z,47.95
2022-09-28T16:25:53.772Z,48.25
2022-09-28T16:31:04.144Z,48.26
2022-09-28T16:36:19.252Z,47.98
2022-09-28T16:41:23.426Z,48.26
2022-09-28T16:46:31.146Z,48.60
2022-09-28T16:51:35.255Z,48.68
2022-09-28T16:56:37.967Z,48.66
2022-09-28T17:01:43.565Z,49.04
2022-09-28T17:06:47.609Z,49.09
2022-09-28T17:11:56.947Z,49.61
2022-09-28T17:22:23.890Z,49.57
2022-09-28T17:27:26.481Z,49.79
2022-09-28T17:32:29.069Z,50.10
2022-09-28T17:37:34.352Z,50.09
2022-09-28T17:42:36.918Z,50.22
2022-09-28T17:47:39.606Z,50.19
2022-09-28T17:52:43.513Z,50.29
2022-09-28T17:57:46.233Z,50.13
2022-09-28T18:02:48.904Z,50.31
2022-09-28T18:07:53.022Z,49.79
2022-09-28T18:12:55.667Z,49.78
2022-09-28T18:17:58.253Z,49.67
2022-09-28T18:23:02.186Z,51.00
2022-09-28T18:28:04.843Z,51.66
2022-09-28T18:33:07.647Z,51.64
2022-09-28T18:38:11.697Z,51.74
2022-09-28T18:43:14.446Z,51.77
2022-09-28T18:48:17.085Z,51.60
2022-09-28T18:53:21.173Z,51.59
2022-09-28T18:58:23.981Z,51.70
2022-09-28T19:03:26.729Z,51.58
2022-09-28T19:08:30.818Z,51.72
2022-09-28T19:13:33.395Z,51.63
2022-09-28T19:18:36.132Z,51.60
2022-09-28T19:23:40.257Z,51.57
2022-09-28T19:28:43.071Z,51.55
2022-09-28T19:33:46.429Z,51.65
2022-09-28T19:38:51.289Z,51.47
2022-09-28T19:43:55.380Z,51.59
2022-09-28T19:49:01.118Z,51.37
2022-09-28T19:54:05.837Z,51.18
2022-09-28T19:59:08.464Z,51.21
2022-09-28T20:04:11.236Z,51.32
2022-09-28T20:09:15.175Z,51.28
2022-09-28T20:14:18.548Z,51.06
2022-09-28T20:19:22.953Z,51.16
2022-09-28T20:24:28.680Z,50.91
2022-09-28T20:29:33.137Z,51.12
2022-09-28T20:34:36.022Z,50.72
2022-09-28T20:44:47.620Z,50.72
2022-09-28T20:49:50.277Z,50.56
2022-09-28T20:54:54.222Z,50.59
2022-09-28T20:59:56.807Z,50.55
2022-09-28T21:04:59.455Z,50.61
2022-09-28T21:10:03.493Z,50.50
2022-09-28T21:15:06.932Z,50.56
2022-09-28T21:20:10.200Z,50.76
2022-09-28T21:25:14.411Z,50.80
2022-09-28T21:30:20.004Z,50.96
2022-09-28T21:35:22.786Z,51.06
2022-09-28T21:40:26.820Z,50.92
2022-09-28T21:45:29.443Z,50.82
2022-09-28T21:50:32.054Z,51.07
2022-09-28T21:55:35.992Z,50.96
2022-09-28T22:00:38.595Z,51.07
2022-09-28T22:05:41.252Z,51.01
2022-09-28T22:10:45.214Z,51.27
2022-09-28T22:15:53.541Z,51.24
2022-09-28T22:20:59.622Z,51.13
2022-09-28T22:26:05.213Z,51.39
2022-09-28T22:31:08.030Z,51.27
2022-09-28T22:36:10.721Z,51.62
2022-09-28T22:41:15.865Z,51.61
2022-09-28T22:46:19.313Z,51.47
2022-09-28T22:51:22.522Z,51.60
2022-09-28T22:56:26.480Z,51.89
2022-09-28T23:01:30.036Z,51.79
2022-09-28T23:06:33.346Z,51.75
2022-09-28T23:11:37.346Z,51.94
2022-09-28T23:16:39.922Z,52.11
2022-09-28T23:21:42.693Z,52.07
2022-09-28T23:26:46.784Z,52.18
2022-09-28T23:31:49.373Z,52.24
2022-09-28T23:36:52.648Z,52.20
2022-09-28T23:41:58.861Z,52.45
2022-09-28T23:47:01.558Z,52.49
2022-09-28T23:52:04.187Z,52.30
2022-09-28T23:57:08.149Z,52.26
